createdAt,value
2019-02-07T00:01:27.528Z,4.33
2019-02-07T00:03:57.608Z,4.50
2019-02-07T00:06:26.028Z,4.60
2019-02-07T00:08:57.348Z,4.43
2019-02-07T00:11:25.814Z,4.33
2019-02-07T00:13:57.914Z,4.40
2019-02-07T00:16:28.333Z,4.17
2019-02-07T00:19:03.554Z,4.60
2019-02-07T00:21:33.608Z,4.60
2019-02-07T00:24:02.736Z,4.20
2019-02-07T00:26:33.643Z,4.53
2019-02-07T00:29:05.162Z,4.10
2019-02-07T00:31:35.693Z,4.50
2019-02-07T00:34:06.042Z,4.33
2019-02-07T00:36:36.996Z,4.93
2019-02-07T00:39:09.688Z,4.50
2019-02-07T00:41:39.652Z,4.03
2019-02-07T00:44:10.984Z,4.10
2019-02-07T00:46:42.978Z,5.03
2019-02-07T00:49:11.091Z,3.90
2019-02-07T00:51:40.064Z,4.17
2019-02-07T00:54:08.502Z,3.87
2019-02-07T00:56:39.794Z,4.30
2019-02-07T00:59:10.188Z,4.57
2019-02-07T01:01:41.360Z,4.00
2019-02-07T01:04:10.145Z,4.40
2019-02-07T01:06:41.464Z,4.13
2019-02-07T01:09:14.101Z,4.40
2019-02-07T01:11:47.314Z,3.90
2019-02-07T01:14:18.928Z,4.03
2019-02-07T01:16:49.125Z,4.00
2019-02-07T01:19:19.857Z,4.23
2019-02-07T01:21:50.187Z,4.73
2019-02-07T01:24:20.864Z,4.33
2019-02-07T01:26:50.979Z,4.37
2019-02-07T01:29:19.411Z,4.03
2019-02-07T01:31:49.896Z,4.37
2019-02-07T01:34:18.888Z,3.70
2019-02-07T01:36:50.295Z,4.77
2019-02-07T01:39:19.726Z,4.07
2019-02-07T01:41:49.892Z,3.90
2019-02-07T01:44:19.432Z,4.30
2019-02-07T01:46:48.093Z,4.60
2019-02-07T01:49:18.400Z,4.53
2019-02-07T01:51:48.477Z,3.87
2019-02-07T01:54:19.985Z,3.83
2019-02-07T01:56:50.016Z,4.10
2019-02-07T01:59:21.862Z,3.93
2019-02-07T02:01:50.629Z,4.77
2019-02-07T02:04:20.972Z,3.97
2019-02-07T02:06:52.285Z,4.07
2019-02-07T02:09:22.256Z,4.20
2019-02-07T02:11:55.392Z,3.93
2019-02-07T02:14:27.490Z,4.60
2019-02-07T02:16:57.605Z,4.07
2019-02-07T02:19:26.032Z,3.97
2019-02-07T02:21:55.761Z,3.80
2019-02-07T02:24:26.166Z,4.40
2019-02-07T02:26:54.596Z,3.90
2019-02-07T02:29:24.370Z,4.00
2019-02-07T02:31:57.497Z,4.27
2019-02-07T02:34:27.515Z,4.00
2019-02-07T02:36:56.522Z,3.77
2019-02-07T02:39:26.564Z,3.80
2019-02-07T02:41:55.280Z,4.33
2019-02-07T02:44:24.407Z,4.07
2019-02-07T02:46:53.106Z,3.77
2019-02-07T02:49:22.608Z,3.60
2019-02-07T02:51:53.917Z,3.80
2019-02-07T02:54:33.218Z,3.60
2019-02-07T02:57:03.569Z,3.97
2019-02-07T02:59:36.295Z,4.33
2019-02-07T03:02:06.611Z,4.37
2019-02-07T03:04:46.200Z,4.00
2019-02-07T03:07:33.300Z,3.80
2019-02-07T03:10:08.449Z,3.40
2019-02-07T03:12:45.782Z,3.60
2019-02-07T03:15:27.914Z,3.50
2019-02-07T03:18:14.343Z,3.80
2019-02-07T03:20:44.377Z,3.67
2019-02-07T03:23:16.866Z,3.87
2019-02-07T03:25:46.911Z,3.67
2019-02-07T03:28:16.974Z,3.70
2019-02-07T03:30:50.554Z,3.53
2019-02-07T03:33:35.418Z,4.13
2019-02-07T03:36:15.654Z,3.80
2019-02-07T03:38:49.068Z,3.83
2019-02-07T03:41:23.113Z,3.57
2019-02-07T03:43:56.173Z,3.40
2019-02-07T03:46:37.574Z,3.70
2019-02-07T03:49:12.636Z,3.57
2019-02-07T03:51:53.652Z,3.40
2019-02-07T03:54:41.435Z,3.30
2019-02-07T03:57:14.066Z,3.57
2019-02-07T04:00:03.966Z,3.60
2019-02-07T04:02:35.024Z,3.57
2019-02-07T04:05:15.049Z,3.47
2019-02-07T04:08:01.457Z,3.70
2019-02-07T04:10:43.678Z,3.80
2019-02-07T04:13:18.223Z,3.60
2019-02-07T04:15:58.201Z,3.23
2019-02-07T04:18:51.176Z,3.80
2019-02-07T04:21:39.078Z,3.83
2019-02-07T04:24:26.769Z,3.93
2019-02-07T04:26:59.497Z,3.40
2019-02-07T04:29:38.488Z,3.97
2019-02-07T04:32:14.003Z,3.33
2019-02-07T04:34:59.626Z,3.73
2019-02-07T04:37:35.488Z,3.50
2019-02-07T04:40:12.189Z,3.70
2019-02-07T04:42:54.486Z,4.03
2019-02-07T04:45:35.276Z,3.60
2019-02-07T04:48:12.031Z,3.70
2019-02-07T04:51:01.726Z,3.67
2019-02-07T04:53:41.059Z,3.67
2019-02-07T04:56:11.203Z,3.77
2019-02-07T04:58:42.876Z,3.70
2019-02-07T05:01:25.141Z,3.70
2019-02-07T05:04:03.172Z,3.43
2019-02-07T05:06:39.516Z,3.53
2019-02-07T05:09:27.153Z,3.60
2019-02-07T05:12:03.524Z,3.37
2019-02-07T05:14:48.954Z,3.67
2019-02-07T05:17:24.945Z,3.47
2019-02-07T05:19:59.804Z,3.90
2019-02-07T05:22:44.236Z,3.30
2019-02-07T05:25:33.283Z,3.87
2019-02-07T05:28:05.541Z,4.10
2019-02-07T05:30:36.065Z,3.47
2019-02-07T05:33:16.480Z,3.43
2019-02-07T05:36:03.351Z,3.53
2019-02-07T05:38:49.461Z,3.73
2019-02-07T05:41:22.922Z,3.40
2019-02-07T05:44:10.763Z,3.20
2019-02-07T05:46:50.689Z,3.60
2019-02-07T05:49:14.160Z,3.40
2019-02-07T05:51:47.880Z,3.33
2019-02-07T05:54:24.115Z,3.40
2019-02-07T05:57:02.253Z,3.37
2019-02-07T05:59:33.178Z,3.77
2019-02-07T06:02:05.396Z,2.93
2019-02-07T06:04:46.950Z,3.40
2019-02-07T06:07:34.525Z,3.10
2019-02-07T06:10:09.295Z,3.20
2019-02-07T06:12:45.958Z,3.40
2019-02-07T06:15:25.806Z,4.00
2019-02-07T06:18:02.762Z,3.27
2019-02-07T06:20:50.819Z,3.40
2019-02-07T06:23:36.909Z,3.60
2019-02-07T06:26:07.913Z,3.10
2019-02-07T06:28:53.480Z,3.07
2019-02-07T06:31:42.766Z,3.03
2019-02-07T06:34:13.870Z,3.07
2019-02-07T06:36:46.777Z,3.30
2019-02-07T06:39:38.529Z,3.23
2019-02-07T06:42:08.855Z,3.10
2019-02-07T06:44:55.081Z,3.27
2019-02-07T06:47:30.956Z,3.40
2019-02-07T06:50:00.999Z,3.70
2019-02-07T06:52:34.217Z,3.10
2019-02-07T06:55:07.266Z,3.10
2019-02-07T06:57:43.652Z,3.23
2019-02-07T07:00:33.135Z,3.17
2019-02-07T07:03:21.004Z,3.10
2019-02-07T07:05:55.189Z,5.20
2019-02-07T07:08:38.966Z,4.70
2019-02-07T07:11:25.089Z,3.80
2019-02-07T07:14:02.429Z,4.23
2019-02-07T07:16:47.589Z,4.17
2019-02-07T07:19:23.905Z,4.23
2019-02-07T07:22:03.024Z,4.33
2019-02-07T07:24:42.949Z,3.77
2019-02-07T07:27:17.362Z,3.80
2019-02-07T07:29:57.647Z,3.73
2019-02-07T07:32:31.405Z,3.90
2019-02-07T07:35:15.121Z,3.80
2019-02-07T07:37:56.030Z,4.00
2019-02-07T07:40:42.654Z,4.13
2019-02-07T07:43:32.292Z,4.07
2019-02-07T07:46:03.633Z,3.73
2019-02-07T07:48:53.481Z,4.30
2019-02-07T07:51:30.590Z,3.80
2019-02-07T07:54:21.018Z,3.50
2019-02-07T07:57:09.249Z,3.43
2019-02-07T07:59:46.469Z,3.87
2019-02-07T08:02:29.186Z,3.93
2019-02-07T08:05:01.417Z,3.77
2019-02-07T08:07:40.330Z,3.57
2019-02-07T08:10:13.553Z,3.70
2019-02-07T08:12:44.850Z,3.53
2019-02-07T08:15:16.360Z,3.60
2019-02-07T08:17:57.294Z,3.47
2019-02-07T08:20:33.796Z,3.40
2019-02-07T08:23:12.765Z,3.40
2019-02-07T08:25:53.597Z,3.23
2019-02-07T08:28:26.706Z,3.77
2019-02-07T08:30:58.310Z,3.47
2019-02-07T08:33:32.033Z,3.60
2019-02-07T08:36:17.187Z,3.67
2019-02-07T08:39:00.489Z,3.57
2019-02-07T08:41:33.052Z,3.53
2019-02-07T08:44:16.441Z,3.50
2019-02-07T08:46:51.351Z,3.70
2019-02-07T08:49:24.862Z,3.70
2019-02-07T08:52:05.551Z,3.47
2019-02-07T08:54:52.300Z,3.20
2019-02-07T08:57:38.713Z,3.10
2019-02-07T09:00:21.481Z,3.63
2019-02-07T09:03:07.759Z,3.07
2019-02-07T09:05:41.006Z,3.30
2019-02-07T09:08:21.785Z,3.40
2019-02-07T09:11:12.948Z,3.30
2019-02-07T09:13:55.432Z,3.10
2019-02-07T09:16:37.470Z,3.20
2019-02-07T09:19:28.986Z,3.63
2019-02-07T09:22:08.669Z,3.20
2019-02-07T09:24:45.217Z,3.30
2019-02-07T09:27:17.328Z,3.50
2019-02-07T09:29:59.421Z,3.10
2019-02-07T09:32:45.247Z,3.07
2019-02-07T09:35:24.662Z,3.20
2019-02-07T09:38:10.882Z,3.20
2019-02-07T09:41:02.329Z,3.30
2019-02-07T09:43:49.148Z,2.87
2019-02-07T09:46:37.425Z,3.50
2019-02-07T09:49:15.525Z,3.20
2019-02-07T09:51:52.134Z,3.10
2019-02-07T09:54:40.503Z,3.40
2019-02-07T09:57:12.685Z,3.47
2019-02-07T09:59:59.198Z,3.30
2019-02-07T10:02:30.918Z,3.20
2019-02-07T10:05:03.577Z,3.20
2019-02-07T10:07:54.986Z,3.60
2019-02-07T10:10:26.536Z,3.23
2019-02-07T10:13:00.146Z,2.83
2019-02-07T10:15:50.354Z,3.30
2019-02-07T10:18:33.253Z,3.03
2019-02-07T10:21:15.023Z,2.83
2019-02-07T10:23:49.659Z,2.67
2019-02-07T10:26:24.479Z,2.93
2019-02-07T10:28:59.825Z,3.03
2019-02-07T10:31:47.205Z,3.27
2019-02-07T10:34:26.234Z,3.33
2019-02-07T10:36:58.210Z,3.10
2019-02-07T10:39:30.878Z,2.90
2019-02-07T10:42:08.936Z,3.00
2019-02-07T10:47:32.310Z,3.00
2019-02-07T10:50:13.486Z,2.90
2019-02-07T10:52:50.984Z,2.97
2019-02-07T10:55:23.940Z,2.90
2019-02-07T10:57:56.908Z,3.03
2019-02-07T11:00:42.757Z,3.07
2019-02-07T11:03:31.318Z,3.07
2019-02-07T11:06:15.058Z,2.83
2019-02-07T11:09:02.296Z,3.20
2019-02-07T11:11:49.074Z,2.77
2019-02-07T11:14:38.500Z,3.20
2019-02-07T11:17:27.860Z,2.73
2019-02-07T11:20:08.324Z,2.70
2019-02-07T11:22:40.698Z,2.70
2019-02-07T11:25:28.069Z,2.60
2019-02-07T11:28:13.679Z,3.20
2019-02-07T11:30:49.072Z,3.23
2019-02-07T11:33:35.324Z,2.60
2019-02-07T11:36:13.262Z,2.70
2019-02-07T11:38:54.016Z,2.97
2019-02-07T11:41:27.361Z,2.80
2019-02-07T11:43:57.436Z,3.07
2019-02-07T11:46:29.185Z,2.53
2019-02-07T11:49:06.892Z,3.00
2019-02-07T11:51:49.582Z,2.50
2019-02-07T11:54:42.577Z,2.57
2019-02-07T11:57:28.825Z,2.53
2019-02-07T12:00:14.831Z,2.50
2019-02-07T12:02:53.720Z,2.40
2019-02-07T12:05:31.266Z,2.47
2019-02-07T12:08:03.044Z,2.70
2019-02-07T12:10:53.973Z,2.50
2019-02-07T12:13:28.489Z,2.47
2019-02-07T12:16:00.512Z,2.43
2019-02-07T12:18:35.363Z,2.67
2019-02-07T12:21:11.646Z,2.37
2019-02-07T12:23:46.868Z,2.47
2019-02-07T12:26:33.761Z,2.83
2019-02-07T12:29:13.440Z,2.73
2019-02-07T12:31:55.689Z,2.67
2019-02-07T12:34:27.057Z,2.47
2019-02-07T12:37:00.665Z,2.40
2019-02-07T12:39:48.974Z,2.40
2019-02-07T12:42:23.162Z,2.50
2019-02-07T12:45:10.429Z,2.17
2019-02-07T12:47:56.784Z,2.43
2019-02-07T12:50:33.234Z,2.23
2019-02-07T12:53:07.449Z,2.60
2019-02-07T12:55:52.270Z,2.23
2019-02-07T12:58:31.237Z,2.50
2019-02-07T13:01:05.249Z,2.07
2019-02-07T13:03:39.544Z,2.30
2019-02-07T13:06:27.930Z,2.23
2019-02-07T13:09:17.573Z,2.40
2019-02-07T13:11:59.906Z,2.40
2019-02-07T13:14:32.022Z,2.03
2019-02-07T13:17:26.165Z,2.30
2019-02-07T13:20:13.623Z,2.20
2019-02-07T13:23:00.135Z,2.10
2019-02-07T13:25:38.998Z,2.17
2019-02-07T13:28:26.750Z,2.10
2019-02-07T13:31:14.723Z,2.00
2019-02-07T13:33:48.008Z,2.17
2019-02-07T13:36:34.265Z,2.03
2019-02-07T13:39:06.821Z,2.30
2019-02-07T13:41:43.882Z,2.10
2019-02-07T13:44:33.854Z,2.10
2019-02-07T13:47:09.966Z,2.10
2019-02-07T13:49:51.639Z,2.10
2019-02-07T13:52:23.645Z,2.10
2019-02-07T13:55:03.248Z,2.03
2019-02-07T13:57:53.099Z,2.20
2019-02-07T14:00:39.977Z,2.30
2019-02-07T14:03:29.868Z,2.20
2019-02-07T14:06:12.391Z,2.03
2019-02-07T14:08:54.442Z,2.07
2019-02-07T14:11:42.661Z,1.80
2019-02-07T14:14:32.608Z,2.00
2019-02-07T14:17:14.712Z,2.00
2019-02-07T14:19:45.021Z,2.10
2019-02-07T14:22:16.837Z,1.77
2019-02-07T14:24:51.327Z,2.00
2019-02-07T14:27:27.592Z,1.90
2019-02-07T14:29:59.100Z,1.90
2019-02-07T14:32:32.869Z,1.77
2019-02-07T14:35:03.201Z,2.13
2019-02-07T14:37:54.340Z,2.30
2019-02-07T14:40:34.981Z,1.97
2019-02-07T14:43:05.333Z,2.10
2019-02-07T14:45:39.903Z,2.13
2019-02-07T14:48:13.502Z,1.90
2019-02-07T14:50:41.924Z,2.10
2019-02-07T14:53:15.786Z,2.10
2019-02-07T14:55:46.102Z,1.80
2019-02-07T14:58:16.516Z,2.00
2019-02-07T15:00:47.058Z,2.30
2019-02-07T15:03:17.586Z,1.90
2019-02-07T15:12:11.700Z,2.03
2019-02-07T15:14:40.140Z,2.30
2019-02-07T15:17:10.024Z,1.87
2019-02-07T15:19:41.725Z,2.23
2019-02-07T15:22:12.557Z,2.00
2019-02-07T15:24:44.337Z,1.90
2019-02-07T15:27:13.087Z,1.93
2019-02-07T15:29:43.401Z,2.00
2019-02-07T15:32:16.714Z,1.80
2019-02-07T15:34:46.494Z,1.80
2019-02-07T15:37:19.248Z,2.17
2019-02-07T15:39:52.942Z,1.80
2019-02-07T15:42:30.381Z,1.73
2019-02-07T15:45:01.466Z,1.70
2019-02-07T15:47:34.579Z,2.00
2019-02-07T15:50:03.157Z,2.13
2019-02-07T15:52:33.973Z,2.07
2019-02-07T15:55:02.915Z,1.83
2019-02-07T15:57:35.058Z,2.07
2019-02-07T16:00:14.071Z,1.90
2019-02-07T16:02:43.742Z,2.00
2019-02-07T16:05:13.857Z,1.63
2019-02-07T16:07:44.673Z,1.83
2019-02-07T16:10:19.597Z,1.70
2019-02-07T16:12:48.917Z,1.83
2019-02-07T16:15:20.265Z,2.00
2019-02-07T16:17:51.128Z,1.83
2019-02-07T16:20:26.413Z,1.80
2019-02-07T16:22:59.085Z,1.73
2019-02-07T16:25:29.156Z,1.70
2019-02-07T16:27:57.566Z,1.77
2019-02-07T16:30:27.249Z,1.93
2019-02-07T16:32:57.649Z,1.97
2019-02-07T16:35:28.587Z,1.83
2019-02-07T16:37:57.882Z,1.77
2019-02-07T16:40:29.564Z,1.70
2019-02-07T16:42:58.702Z,1.73
2019-02-07T16:45:29.773Z,1.73
2019-02-07T16:47:59.069Z,1.50
2019-02-07T16:50:33.154Z,1.60
2019-02-07T16:53:08.185Z,1.87
2019-02-07T16:55:37.961Z,2.27
2019-02-07T16:58:08.237Z,1.80
2019-02-07T17:00:39.197Z,1.90
2019-02-07T17:03:10.069Z,1.70
2019-02-07T17:05:40.668Z,1.80
2019-02-07T17:08:13.276Z,1.80
2019-02-07T17:10:43.209Z,1.80
2019-02-07T17:13:13.920Z,1.97
2019-02-07T17:15:48.478Z,1.87
2019-02-07T17:18:18.000Z,1.83
2019-02-07T17:20:48.361Z,1.60
2019-02-07T17:23:17.166Z,1.70
2019-02-07T17:25:48.714Z,1.77
2019-02-07T17:28:22.348Z,1.80
2019-02-07T17:30:52.357Z,1.80
2019-02-07T17:33:22.093Z,1.60
2019-02-07T17:35:54.950Z,1.60
2019-02-07T17:38:25.513Z,2.10
2019-02-07T17:40:59.658Z,1.80
2019-02-07T17:43:31.753Z,1.73
2019-02-07T17:46:01.986Z,1.67
2019-02-07T17:48:32.330Z,1.70
2019-02-07T17:51:05.072Z,1.67
2019-02-07T17:53:38.304Z,1.60
2019-02-07T17:56:09.948Z,1.60
2019-02-07T17:58:42.401Z,1.90
2019-02-07T18:01:10.873Z,1.43
2019-02-07T18:03:40.785Z,1.80
2019-02-07T18:06:11.152Z,1.50
2019-02-07T18:08:39.719Z,1.63
2019-02-07T18:11:11.767Z,1.60
2019-02-07T18:13:42.954Z,1.70
2019-02-07T18:16:15.446Z,1.80
2019-02-07T18:18:45.905Z,1.60
2019-02-07T18:21:18.431Z,1.80
2019-02-07T18:23:49.075Z,1.80
2019-02-07T18:26:17.741Z,1.57
2019-02-07T18:28:47.451Z,1.60
2019-02-07T18:31:19.321Z,1.50
2019-02-07T18:36:44.785Z,1.57
2019-02-07T18:39:15.784Z,1.60
2019-02-07T18:41:48.921Z,1.43
2019-02-07T18:44:20.889Z,1.33
2019-02-07T18:46:50.957Z,1.70
2019-02-07T18:49:21.832Z,1.60
2019-02-07T18:51:50.589Z,1.43
2019-02-07T18:54:20.841Z,1.70
2019-02-07T18:56:49.553Z,1.90
2019-02-07T18:59:17.981Z,1.60
2019-02-07T19:01:46.401Z,1.73
2019-02-07T19:04:14.848Z,1.90
2019-02-07T19:06:43.250Z,1.77
2019-02-07T19:09:11.960Z,1.63
2019-02-07T19:11:40.364Z,1.70
2019-02-07T19:14:09.097Z,1.70
2019-02-07T19:16:37.577Z,1.60
2019-02-07T19:19:06.029Z,2.00
2019-02-07T19:21:34.461Z,1.70
2019-02-07T19:24:02.874Z,1.63
2019-02-07T19:26:31.340Z,1.67
2019-02-07T19:28:59.728Z,1.50
2019-02-07T19:31:28.183Z,1.57
2019-02-07T19:33:56.600Z,1.50
2019-02-07T19:36:25.042Z,1.40
2019-02-07T19:38:53.461Z,1.90
2019-02-07T19:41:22.195Z,1.60
2019-02-07T19:43:50.598Z,1.60
2019-02-07T19:46:19.088Z,1.80
2019-02-07T19:48:47.488Z,1.60
2019-02-07T19:51:15.909Z,1.40
2019-02-07T19:53:44.363Z,1.70
2019-02-07T19:56:12.772Z,1.70
2019-02-07T19:58:41.202Z,1.50
2019-02-07T20:01:09.618Z,1.50
2019-02-07T20:03:38.478Z,1.50
2019-02-07T20:06:06.902Z,1.57
2019-02-07T20:08:35.329Z,1.70
2019-02-07T20:11:03.741Z,1.60
2019-02-07T20:13:32.308Z,1.70
2019-02-07T20:16:02.378Z,1.70
2019-02-07T20:18:33.831Z,1.50
2019-02-07T20:21:02.576Z,1.60
2019-02-07T20:23:30.985Z,1.63
2019-02-07T20:26:00.233Z,1.43
2019-02-07T20:28:28.642Z,1.33
2019-02-07T20:30:57.074Z,1.60
2019-02-07T20:33:26.189Z,1.67
2019-02-07T20:35:54.879Z,1.60
2019-02-07T20:38:23.589Z,1.60
2019-02-07T20:40:52.000Z,1.60
2019-02-07T20:43:21.834Z,1.57
2019-02-07T20:45:50.257Z,1.50
2019-02-07T20:48:18.697Z,1.40
2019-02-07T20:50:47.096Z,1.40
2019-02-07T20:53:16.901Z,1.83
2019-02-07T20:55:45.683Z,1.40
2019-02-07T20:58:14.112Z,1.60
2019-02-07T21:00:42.526Z,1.43
2019-02-07T21:03:10.938Z,1.63
2019-02-07T21:05:43.827Z,1.60
2019-02-07T21:08:13.866Z,1.43
2019-02-07T21:10:44.860Z,1.60
2019-02-07T21:13:13.261Z,1.50
2019-02-07T21:15:41.727Z,1.60
2019-02-07T21:18:10.150Z,1.50
2019-02-07T21:20:38.617Z,1.60
2019-02-07T21:23:08.281Z,1.50
2019-02-07T21:25:39.672Z,1.53
2019-02-07T21:28:08.485Z,1.30
2019-02-07T21:30:36.944Z,1.60
2019-02-07T21:33:05.907Z,1.73
2019-02-07T21:35:34.366Z,1.70
2019-02-07T21:38:02.863Z,1.43
2019-02-07T21:40:31.357Z,1.67
2019-02-07T21:43:00.286Z,1.67
2019-02-07T21:45:29.144Z,1.50
2019-02-07T21:47:59.288Z,1.43
2019-02-07T21:50:31.589Z,1.40
2019-02-07T21:55:40.452Z,1.30
2019-02-07T21:58:09.375Z,1.40
2019-02-07T22:00:39.717Z,1.50
2019-02-07T22:03:09.574Z,1.50
2019-02-07T22:05:38.091Z,1.53
2019-02-07T22:08:07.293Z,1.70
2019-02-07T22:10:35.798Z,1.40
2019-02-07T22:13:04.744Z,1.80
2019-02-07T22:15:33.840Z,1.50
2019-02-07T22:18:02.250Z,1.73
2019-02-07T22:20:30.968Z,1.50
2019-02-07T22:22:59.444Z,1.50
2019-02-07T22:25:28.108Z,1.57
2019-02-07T22:27:56.548Z,1.50
2019-02-07T22:30:27.486Z,1.50
2019-02-07T22:32:56.089Z,1.40
2019-02-07T22:35:24.782Z,1.47
2019-02-07T22:37:53.208Z,1.63
2019-02-07T22:40:23.061Z,1.60
2019-02-07T22:42:51.555Z,1.20
2019-02-07T22:45:22.530Z,1.70
2019-02-07T22:47:50.969Z,1.30
2019-02-07T22:50:24.597Z,1.40
2019-02-07T22:52:57.149Z,1.40
2019-02-07T22:55:23.214Z,1.40
2019-02-07T22:57:51.634Z,1.63
2019-02-07T23:00:34.326Z,1.50
2019-02-07T23:03:05.443Z,1.40
2019-02-07T23:05:33.885Z,1.50
2019-02-07T23:08:02.300Z,1.50
2019-02-07T23:10:30.735Z,1.40
2019-02-07T23:13:00.885Z,1.50
2019-02-07T23:15:30.945Z,1.80
2019-02-07T23:17:59.365Z,1.40
2019-02-07T23:20:27.805Z,1.33
2019-02-07T23:23:04.603Z,1.40
2019-02-07T23:25:26.545Z,1.67
2019-02-07T23:27:55.260Z,1.30
2019-02-07T23:30:23.697Z,1.37
2019-02-07T23:32:54.899Z,1.40
2019-02-07T23:35:23.340Z,1.23
2019-02-07T23:37:51.754Z,1.50
2019-02-07T23:40:23.485Z,1.40
2019-02-07T23:42:51.890Z,1.30
2019-02-07T23:45:21.543Z,1.30
2019-02-07T23:47:49.976Z,1.23
2019-02-07T23:50:18.376Z,1.47
2019-02-07T23:52:47.299Z,1.67
2019-02-07T23:55:16.426Z,1.10
2019-02-07T23:57:45.360Z,1.30
